Time;durP1;ratioP1;P1;durP2;ratioP2;P2;SDS_P1;SDS_P2;PMS_P1;PMS_P2;Temp;Humidity;BMP_temperature;BMP_pressure;BME280_temperature;BME280_humidity;BME280_pressure;Samples;Min_cycle;Max_cycle;Signal;HPM_P1;HPM_P2
2023/06/11 00:02:07;;;;;;;4.00;2.10;;;;;;;;;;5030447;28;20896;-81
2023/06/11 00:04:35;;;;;;;7.07;1.90;;;;;;;;;;5043015;28;20892;-83
2023/06/11 00:07:05;;;;;;;3.10;1.40;;;;;;;;;;5042637;28;20556;-80
2023/06/11 00:09:32;;;;;;;10.10;2.00;;;;;;;;;;5043083;28;20486;-82
2023/06/11 00:12:01;;;;;;;4.80;2.30;;;;;;;;;;5043764;28;20489;-83
2023/06/11 00:14:29;;;;;;;3.40;2.00;;;;;;;;;;5043972;28;20490;-82
2023/06/11 00:16:56;;;;;;;4.90;2.10;;;;;;;;;;5044520;28;20455;-81
2023/06/11 00:19:28;;;;;;;4.47;2.07;;;;;;;;;;5042218;28;20447;-80
2023/06/11 00:21:56;;;;;;;4.73;2.60;;;;;;;;;;5043880;28;20524;-80
2023/06/11 00:24:24;;;;;;;2.30;1.40;;;;;;;;;;5042864;28;20632;-82
2023/06/11 00:26:51;;;;;;;11.77;3.00;;;;;;;;;;5044294;28;20455;-82
2023/06/11 00:29:20;;;;;;;6.20;1.63;;;;;;;;;;5044160;28;20580;-82
2023/06/11 00:31:47;;;;;;;3.70;1.33;;;;;;;;;;5044101;28;20462;-84
2023/06/11 00:34:16;;;;;;;6.13;1.73;;;;;;;;;;5042178;28;20512;-85
2023/06/11 00:36:44;;;;;;;5.07;3.30;;;;;;;;;;5044407;28;20488;-82
2023/06/11 00:39:13;;;;;;;4.70;1.67;;;;;;;;;;5043926;28;20475;-81
2023/06/11 00:41:45;;;;;;;3.73;1.40;;;;;;;;;;5039881;28;20539;-80
2023/06/11 00:44:17;;;;;;;4.43;1.80;;;;;;;;;;5041256;28;20529;-81
2023/06/11 00:46:47;;;;;;;4.70;1.83;;;;;;;;;;5040802;28;20453;-84
2023/06/11 00:49:14;;;;;;;3.63;1.70;;;;;;;;;;5042578;28;20514;-80
2023/06/11 00:51:42;;;;;;;4.90;1.53;;;;;;;;;;5041599;28;20455;-82
2023/06/11 00:54:13;;;;;;;3.13;1.70;;;;;;;;;;5041597;28;20601;-86
2023/06/11 00:56:41;;;;;;;4.23;1.80;;;;;;;;;;5044262;28;20447;-83
2023/06/11 00:59:09;;;;;;;3.90;1.80;;;;;;;;;;5044675;28;20455;-81
2023/06/11 01:01:41;;;;;;;3.80;2.40;;;;;;;;;;5039641;28;20532;-84
2023/06/11 01:04:13;;;;;;;5.27;2.30;;;;;;;;;;5023892;28;20459;-79
2023/06/11 01:06:46;;;;;;;6.80;1.60;;;;;;;;;;5023083;28;20804;-81
2023/06/11 01:09:17;;;;;;;7.73;1.70;;;;;;;;;;5019337;28;20518;-83
2023/06/11 01:11:44;;;;;;;6.40;2.07;;;;;;;;;;5019798;28;20525;-82
2023/06/11 01:14:13;;;;;;;3.23;1.63;;;;;;;;;;5019135;28;20447;-80
2023/06/11 01:16:45;;;;;;;7.73;1.97;;;;;;;;;;5022589;28;20530;-81
2023/06/11 01:19:24;;;;;;;4.60;1.70;;;;;;;;;;5022134;28;20463;-83
2023/06/11 01:21:54;;;;;;;4.27;1.70;;;;;;;;;;5022650;28;20456;-83
2023/06/11 01:24:24;;;;;;;2.63;1.20;;;;;;;;;;5021358;28;20455;-82
2023/06/11 01:26:55;;;;;;;4.63;1.80;;;;;;;;;;5022369;28;20459;-82
2023/06/11 01:29:26;;;;;;;3.20;1.50;;;;;;;;;;5023769;28;20495;-81
2023/06/11 01:31:54;;;;;;;4.10;2.33;;;;;;;;;;5024138;28;20484;-80
2023/06/11 01:34:25;;;;;;;6.83;1.53;;;;;;;;;;5023893;28;20477;-83
2023/06/11 01:36:52;;;;;;;4.30;2.60;;;;;;;;;;5026210;28;20480;-81
2023/06/11 01:39:20;;;;;;;3.87;2.00;;;;;;;;;;5027028;28;20546;-81
2023/06/11 01:41:47;;;;;;;5.30;2.37;;;;;;;;;;5026529;28;20495;-83
2023/06/11 01:44:16;;;;;;;3.90;1.50;;;;;;;;;;5024981;28;20459;-79
2023/06/11 01:46:44;;;;;;;7.80;1.80;;;;;;;;;;5024767;28;20632;-81
2023/06/11 01:49:12;;;;;;;6.50;2.10;;;;;;;;;;5023154;28;20491;-83
2023/06/11 01:51:39;;;;;;;3.07;1.83;;;;;;;;;;5024862;28;20865;-82
2023/06/11 01:54:07;;;;;;;3.13;1.50;;;;;;;;;;5022928;28;20464;-83
2023/06/11 01:56:34;;;;;;;5.80;1.90;;;;;;;;;;5025607;28;20452;-80
2023/06/11 01:59:01;;;;;;;2.70;1.50;;;;;;;;;;5024182;28;20451;-84
2023/06/11 02:01:29;;;;;;;3.37;1.50;;;;;;;;;;5024857;28;20467;-81
2023/06/11 02:03:58;;;;;;;5.90;1.80;;;;;;;;;;5027112;28;20522;-81
2023/06/11 02:06:25;;;;;;;3.77;1.83;;;;;;;;;;5025735;28;20840;-82
2023/06/11 02:08:53;;;;;;;3.03;1.53;;;;;;;;;;5026771;28;20973;-82
2023/06/11 02:11:23;;;;;;;7.80;1.80;;;;;;;;;;5026931;28;20466;-81
2023/06/11 02:13:51;;;;;;;6.90;1.53;;;;;;;;;;5027851;28;20458;-81
2023/06/11 02:16:19;;;;;;;3.40;1.60;;;;;;;;;;5028960;28;20466;-80
2023/06/11 02:18:47;;;;;;;3.87;1.77;;;;;;;;;;5030918;28;20448;-81
2023/06/11 02:21:16;;;;;;;4.50;2.47;;;;;;;;;;5029460;28;20519;-81
2023/06/11 02:23:43;;;;;;;6.33;1.53;;;;;;;;;;5031335;28;20462;-80
2023/06/11 02:26:12;;;;;;;2.83;1.50;;;;;;;;;;5030654;28;20459;-83
2023/06/11 02:28:40;;;;;;;4.30;2.00;;;;;;;;;;5029787;28;20806;-83
2023/06/11 02:31:07;;;;;;;6.07;1.87;;;;;;;;;;5028309;28;20472;-79
2023/06/11 02:33:35;;;;;;;5.93;1.57;;;;;;;;;;5029977;28;20439;-82
2023/06/11 02:36:02;;;;;;;3.90;1.53;;;;;;;;;;5030606;28;20455;-83
2023/06/11 02:38:31;;;;;;;2.90;1.70;;;;;;;;;;5026992;28;20467;-81
2023/06/11 02:40:58;;;;;;;4.03;1.60;;;;;;;;;;5027120;28;20462;-82
2023/06/11 02:43:26;;;;;;;7.33;1.67;;;;;;;;;;5027200;28;20451;-82
2023/06/11 02:45:53;;;;;;;4.90;1.70;;;;;;;;;;5027581;28;20440;-82
2023/06/11 02:48:21;;;;;;;7.03;1.60;;;;;;;;;;5030413;28;20455;-81
2023/06/11 02:50:49;;;;;;;9.07;1.90;;;;;;;;;;5027241;28;20479;-79
2023/06/11 02:53:16;;;;;;;2.97;1.27;;;;;;;;;;5027915;28;20883;-80
2023/06/11 02:55:45;;;;;;;5.23;1.73;;;;;;;;;;5027890;28;20549;-82
2023/06/11 02:58:12;;;;;;;3.43;1.63;;;;;;;;;;5026616;28;20469;-82
2023/06/11 03:00:40;;;;;;;4.87;2.00;;;;;;;;;;5029474;28;20438;-81
2023/06/11 03:03:07;;;;;;;4.60;1.60;;;;;;;;;;5027963;28;20440;-80
2023/06/11 03:05:34;;;;;;;5.17;2.90;;;;;;;;;;5029523;28;20475;-84
2023/06/11 03:08:01;;;;;;;3.80;1.90;;;;;;;;;;5025095;28;20455;-83
2023/06/11 03:10:29;;;;;;;3.27;1.73;;;;;;;;;;5027955;28;20495;-83
2023/06/11 03:12:58;;;;;;;2.40;1.30;;;;;;;;;;5028413;28;20450;-80
2023/06/11 03:15:28;;;;;;;3.50;1.60;;;;;;;;;;5027835;28;20517;-79
2023/06/11 03:17:55;;;;;;;4.03;1.87;;;;;;;;;;5029503;28;20470;-80
2023/06/11 03:20:23;;;;;;;4.33;1.80;;;;;;;;;;5026569;28;20456;-81
2023/06/11 03:22:51;;;;;;;7.83;1.73;;;;;;;;;;5027627;28;20853;-82
2023/06/11 03:25:21;;;;;;;3.77;1.57;;;;;;;;;;5026976;28;20452;-81
2023/06/11 03:27:49;;;;;;;6.60;2.43;;;;;;;;;;5027058;28;20451;-83
2023/06/11 03:30:28;;;;;;;4.10;1.60;;;;;;;;;;5027022;28;20775;-81
2023/06/11 03:32:55;;;;;;;5.87;1.67;;;;;;;;;;5028003;28;20949;-79
2023/06/11 03:35:23;;;;;;;3.67;1.47;;;;;;;;;;5028848;28;20451;-82
2023/06/11 03:37:50;;;;;;;3.40;1.93;;;;;;;;;;5028334;28;20451;-81
2023/06/11 03:40:17;;;;;;;4.70;1.90;;;;;;;;;;5029982;28;20456;-82
2023/06/11 03:42:45;;;;;;;3.63;2.10;;;;;;;;;;5028314;28;20450;-84
2023/06/11 03:45:12;;;;;;;5.27;2.00;;;;;;;;;;5027196;28;20912;-83
2023/06/11 03:47:43;;;;;;;4.47;1.40;;;;;;;;;;5029486;28;20470;-83
2023/06/11 03:50:12;;;;;;;3.00;1.50;;;;;;;;;;5027675;28;20487;-81
2023/06/11 03:52:39;;;;;;;4.30;1.93;;;;;;;;;;5025316;28;20465;-82
2023/06/11 03:55:07;;;;;;;4.93;2.10;;;;;;;;;;5027443;28;20447;-81
2023/06/11 03:57:35;;;;;;;4.73;1.60;;;;;;;;;;5026446;28;20452;-82
2023/06/11 04:00:02;;;;;;;4.63;2.53;;;;;;;;;;5027196;28;20444;-82
2023/06/11 04:02:31;;;;;;;10.23;1.80;;;;;;;;;;5012880;28;20540;-83
2023/06/11 04:04:59;;;;;;;5.90;1.87;;;;;;;;;;5006777;28;20456;-82
2023/06/11 04:07:27;;;;;;;6.93;1.67;;;;;;;;;;5004162;28;20694;-79
2023/06/11 04:09:55;;;;;;;8.33;2.47;;;;;;;;;;5005869;28;20493;-81
2023/06/11 04:12:22;;;;;;;6.17;1.57;;;;;;;;;;5006919;28;20460;-79
2023/06/11 04:14:50;;;;;;;6.07;2.40;;;;;;;;;;5008286;28;20456;-83
2023/06/11 04:17:17;;;;;;;4.07;1.93;;;;;;;;;;5007795;28;20464;-80
2023/06/11 04:19:45;;;;;;;5.90;1.60;;;;;;;;;;5005466;28;20452;-81
2023/06/11 04:22:14;;;;;;;5.80;1.57;;;;;;;;;;5005437;28;20460;-82
2023/06/11 04:24:41;;;;;;;8.53;4.50;;;;;;;;;;5008563;28;20733;-82
2023/06/11 04:27:11;;;;;;;11.73;7.60;;;;;;;;;;5006665;28;20463;-81
2023/06/11 04:29:38;;;;;;;5.30;3.50;;;;;;;;;;5008677;28;20907;-82
2023/06/11 04:32:09;;;;;;;3.93;2.60;;;;;;;;;;5009345;28;20456;-82
2023/06/11 04:34:37;;;;;;;8.53;2.27;;;;;;;;;;5011455;28;20457;-81
2023/06/11 04:37:09;;;;;;;4.63;1.80;;;;;;;;;;5009660;28;20445;-82
2023/06/11 04:39:38;;;;;;;3.27;1.50;;;;;;;;;;5011366;28;20452;-79
2023/06/11 04:42:05;;;;;;;4.20;1.97;;;;;;;;;;5011153;28;20457;-82
2023/06/11 04:44:33;;;;;;;4.70;2.00;;;;;;;;;;5008788;28;20875;-81
2023/06/11 04:47:00;;;;;;;3.37;2.17;;;;;;;;;;5011321;28;20456;-83
2023/06/11 04:49:28;;;;;;;3.90;1.93;;;;;;;;;;5009650;28;20477;-84
2023/06/11 04:51:58;;;;;;;7.17;2.60;;;;;;;;;;5006264;28;20559;-85
2023/06/11 04:54:26;;;;;;;4.23;2.10;;;;;;;;;;5007306;28;20448;-83
2023/06/11 04:56:55;;;;;;;5.67;2.40;;;;;;;;;;5005033;28;20537;-82
2023/06/11 04:59:22;;;;;;;7.93;2.00;;;;;;;;;;5005448;28;20453;-81
2023/06/11 05:01:53;;;;;;;5.53;2.20;;;;;;;;;;5010860;28;20451;-82
2023/06/11 05:04:21;;;;;;;5.07;2.17;;;;;;;;;;5027958;28;20458;-81
2023/06/11 05:06:48;;;;;;;4.37;2.30;;;;;;;;;;5028799;28;20510;-81
2023/06/11 05:09:16;;;;;;;6.27;2.13;;;;;;;;;;5027308;28;20454;-81
2023/06/11 05:11:44;;;;;;;5.70;2.47;;;;;;;;;;5024257;28;20483;-83
2023/06/11 05:14:13;;;;;;;6.57;1.90;;;;;;;;;;5025954;28;20455;-84
2023/06/11 05:16:40;;;;;;;5.70;1.57;;;;;;;;;;5027943;28;20487;-84
2023/06/11 05:19:08;;;;;;;3.63;1.90;;;;;;;;;;5028242;28;20488;-82
2023/06/11 05:21:36;;;;;;;5.90;1.90;;;;;;;;;;5026770;28;20538;-83
2023/06/11 05:24:07;;;;;;;5.37;2.57;;;;;;;;;;5024519;28;20470;-82
2023/06/11 05:26:37;;;;;;;3.40;1.90;;;;;;;;;;5021158;28;20571;-82
2023/06/11 05:29:05;;;;;;;5.60;2.53;;;;;;;;;;5021534;28;20531;-81
2023/06/11 05:31:35;;;;;;;5.70;2.40;;;;;;;;;;5023343;28;20494;-82
2023/06/11 05:34:03;;;;;;;2.83;1.70;;;;;;;;;;5024754;28;20764;-83
2023/06/11 05:36:42;;;;;;;4.23;1.70;;;;;;;;;;5025685;28;20467;-85
2023/06/11 05:39:10;;;;;;;4.40;2.20;;;;;;;;;;5028131;28;20534;-83
2023/06/11 05:41:39;;;;;;;3.07;2.10;;;;;;;;;;5028536;28;20451;-84
2023/06/11 05:44:06;;;;;;;2.77;1.60;;;;;;;;;;5028076;28;20455;-83
2023/06/11 05:46:35;;;;;;;7.13;1.87;;;;;;;;;;5030612;28;20460;-80
2023/06/11 05:49:03;;;;;;;4.13;2.17;;;;;;;;;;5032948;28;20501;-83
2023/06/11 05:51:30;;;;;;;5.73;2.60;;;;;;;;;;5031551;28;20502;-84
2023/06/11 05:54:01;;;;;;;5.03;2.43;;;;;;;;;;5031262;28;20447;-83
2023/06/11 05:56:28;;;;;;;3.50;1.83;;;;;;;;;;5030767;28;20459;-84
2023/06/11 05:58:56;;;;;;;2.93;2.10;;;;;;;;;;5027692;28;20462;-82
2023/06/11 06:01:23;;;;;;;4.63;3.00;;;;;;;;;;5029349;28;20486;-81
2023/06/11 06:03:52;;;;;;;5.70;2.40;;;;;;;;;;5009785;28;20449;-80
2023/06/11 06:06:20;;;;;;;5.90;2.40;;;;;;;;;;5013623;28;20480;-81
2023/06/11 06:08:47;;;;;;;5.37;2.07;;;;;;;;;;5011943;28;20515;-81
2023/06/11 06:11:17;;;;;;;10.73;2.20;;;;;;;;;;5012670;28;20751;-81
2023/06/11 06:13:45;;;;;;;5.43;2.43;;;;;;;;;;5012072;28;20467;-82
2023/06/11 06:16:20;;;;;;;3.87;2.37;;;;;;;;;;5012283;28;20459;-83
2023/06/11 06:18:47;;;;;;;3.33;2.07;;;;;;;;;;5009578;28;20475;-81
2023/06/11 06:21:17;;;;;;;4.60;1.97;;;;;;;;;;5008317;28;20456;-80
2023/06/11 06:23:44;;;;;;;6.90;2.60;;;;;;;;;;5007717;28;20459;-82
2023/06/11 06:26:14;;;;;;;6.17;2.70;;;;;;;;;;5008591;28;20519;-80
2023/06/11 06:28:41;;;;;;;4.10;2.40;;;;;;;;;;5009018;28;20460;-81
2023/06/11 06:31:12;;;;;;;5.70;2.50;;;;;;;;;;5008677;28;20480;-81
2023/06/11 06:33:40;;;;;;;8.83;2.50;;;;;;;;;;5009331;28;20460;-79
2023/06/11 06:36:07;;;;;;;3.40;2.10;;;;;;;;;;5008083;28;20471;-84
2023/06/11 06:38:36;;;;;;;4.67;2.70;;;;;;;;;;5007499;28;20468;-83
2023/06/11 06:41:03;;;;;;;3.87;2.20;;;;;;;;;;5004831;28;20534;-83
2023/06/11 06:43:31;;;;;;;5.83;2.50;;;;;;;;;;5005724;28;20457;-83
2023/06/11 06:45:58;;;;;;;7.43;2.67;;;;;;;;;;5008151;28;20502;-83
2023/06/11 06:48:28;;;;;;;3.63;2.47;;;;;;;;;;5010231;28;20804;-82
2023/06/11 06:50:56;;;;;;;5.47;2.40;;;;;;;;;;5009545;28;20485;-83
2023/06/11 06:53:23;;;;;;;4.23;1.70;;;;;;;;;;5011179;28;20539;-81
2023/06/11 06:55:52;;;;;;;3.97;2.00;;;;;;;;;;5008200;28;20483;-85
2023/06/11 06:58:19;;;;;;;4.60;2.47;;;;;;;;;;5008707;28;20526;-84
2023/06/11 07:00:50;;;;;;;4.97;2.90;;;;;;;;;;5005154;28;20460;-81
2023/06/11 07:03:17;;;;;;;5.87;2.97;;;;;;;;;;5027361;28;20460;-84
2023/06/11 07:05:45;;;;;;;4.27;2.43;;;;;;;;;;5027237;28;20534;-84
2023/06/11 07:08:13;;;;;;;5.10;2.43;;;;;;;;;;5027219;28;20455;-82
2023/06/11 07:10:42;;;;;;;4.13;2.10;;;;;;;;;;5031579;28;20480;-81
2023/06/11 07:13:12;;;;;;;5.33;2.60;;;;;;;;;;5030643;28;20539;-82
2023/06/11 07:15:40;;;;;;;5.97;2.37;;;;;;;;;;5030151;28;20942;-83
2023/06/11 07:18:08;;;;;;;4.30;2.23;;;;;;;;;;5028253;28;20460;-81
2023/06/11 07:20:35;;;;;;;4.20;2.37;;;;;;;;;;5028257;28;20531;-83
2023/06/11 07:23:03;;;;;;;4.00;2.30;;;;;;;;;;5026557;28;20459;-83
2023/06/11 07:25:31;;;;;;;6.77;3.53;;;;;;;;;;5027789;28;20460;-81
2023/06/11 07:27:59;;;;;;;5.40;3.00;;;;;;;;;;5024761;28;20864;-81
2023/06/11 07:30:31;;;;;;;3.63;2.40;;;;;;;;;;5025530;28;20474;-83
2023/06/11 07:32:58;;;;;;;9.23;2.90;;;;;;;;;;5023079;28;20467;-84
2023/06/11 07:35:28;;;;;;;3.43;2.23;;;;;;;;;;5024566;28;20479;-83
2023/06/11 07:37:56;;;;;;;5.97;2.50;;;;;;;;;;5007415;28;20452;-82
2023/06/11 07:40:23;;;;;;;4.70;2.60;;;;;;;;;;5006232;28;20504;-81
2023/06/11 07:42:50;;;;;;;5.23;2.50;;;;;;;;;;5008013;28;20469;-79
2023/06/11 07:45:21;;;;;;;4.77;2.27;;;;;;;;;;5006910;28;20460;-80
2023/06/11 07:47:50;;;;;;;6.07;2.30;;;;;;;;;;5004529;28;20508;-84
2023/06/11 07:50:17;;;;;;;5.00;2.40;;;;;;;;;;5004697;28;20448;-83
2023/06/11 07:52:45;;;;;;;5.20;2.90;;;;;;;;;;5003700;28;20453;-83
2023/06/11 07:55:13;;;;;;;7.93;2.60;;;;;;;;;;5004331;28;20535;-82
2023/06/11 07:57:41;;;;;;;4.90;2.63;;;;;;;;;;5004327;28;20551;-81
2023/06/11 08:00:12;;;;;;;6.00;2.70;;;;;;;;;;5005847;28;20452;-80
2023/06/11 08:02:42;;;;;;;5.03;2.43;;;;;;;;;;5017412;28;20789;-84
2023/06/11 08:05:11;;;;;;;8.17;3.30;;;;;;;;;;5021879;28;20483;-83
2023/06/11 08:07:39;;;;;;;4.57;2.63;;;;;;;;;;5026646;28;20670;-82
2023/06/11 08:10:08;;;;;;;4.77;2.40;;;;;;;;;;5025954;28;20456;-82
2023/06/11 08:12:36;;;;;;;5.00;2.57;;;;;;;;;;5024195;28;20579;-80
2023/06/11 08:15:03;;;;;;;7.67;3.33;;;;;;;;;;5026524;28;20459;-83
2023/06/11 08:17:31;;;;;;;6.67;3.03;;;;;;;;;;5024256;28;20448;-83
2023/06/11 08:19:58;;;;;;;4.00;2.43;;;;;;;;;;5024347;28;20566;-82
2023/06/11 08:22:27;;;;;;;8.63;2.27;;;;;;;;;;5021804;28;20451;-82
2023/06/11 08:24:54;;;;;;;4.60;2.93;;;;;;;;;;5022386;28;20451;-85
2023/06/11 08:27:22;;;;;;;4.17;2.47;;;;;;;;;;5024092;28;20511;-81
2023/06/11 08:29:59;;;;;;;4.37;2.70;;;;;;;;;;5021227;28;20535;-82
2023/06/11 08:32:27;;;;;;;4.33;2.73;;;;;;;;;;5023991;28;20479;-81
2023/06/11 08:34:54;;;;;;;7.60;3.20;;;;;;;;;;5021178;28;20515;-82
2023/06/11 08:37:23;;;;;;;4.20;2.37;;;;;;;;;;5024950;28;20885;-82
2023/06/11 08:39:52;;;;;;;5.57;4.60;;;;;;;;;;5025003;28;20473;-81
2023/06/11 08:42:20;;;;;;;5.53;2.73;;;;;;;;;;5026166;28;20444;-81
2023/06/11 08:44:47;;;;;;;11.03;3.40;;;;;;;;;;5025262;28;20495;-81
2023/06/11 08:47:16;;;;;;;5.27;2.40;;;;;;;;;;5024741;28;20524;-80
2023/06/11 08:49:49;;;;;;;6.87;2.97;;;;;;;;;;5023685;28;20463;-81
2023/06/11 08:52:17;;;;;;;4.90;2.93;;;;;;;;;;5025802;28;20519;-80
2023/06/11 08:54:44;;;;;;;5.67;2.60;;;;;;;;;;5023644;28;20880;-80
2023/06/11 08:57:13;;;;;;;5.67;3.03;;;;;;;;;;5024162;28;20463;-83
2023/06/11 08:59:40;;;;;;;3.73;2.83;;;;;;;;;;5022052;28;20551;-83
2023/06/11 09:02:08;;;;;;;3.83;2.43;;;;;;;;;;5020988;28;20747;-82
2023/06/11 09:04:37;;;;;;;4.37;2.30;;;;;;;;;;5023390;28;20475;-82
2023/06/11 09:07:05;;;;;;;5.60;2.87;;;;;;;;;;5021272;28;20483;-82
2023/06/11 09:09:33;;;;;;;3.50;2.17;;;;;;;;;;5020683;28;20470;-82
2023/06/11 09:12:06;;;;;;;14.43;4.87;;;;;;;;;;5020564;28;20647;-84
2023/06/11 09:14:35;;;;;;;5.83;3.13;;;;;;;;;;5028647;28;20454;-81
2023/06/11 09:17:03;;;;;;;5.07;2.57;;;;;;;;;;5025772;28;20463;-82
2023/06/11 09:19:30;;;;;;;5.03;2.70;;;;;;;;;;5023708;28;20467;-81
2023/06/11 09:21:58;;;;;;;4.70;2.40;;;;;;;;;;5022501;28;20502;-82
2023/06/11 09:24:26;;;;;;;12.53;3.30;;;;;;;;;;5021181;28;20470;-79
2023/06/11 09:26:54;;;;;;;5.63;2.97;;;;;;;;;;5025540;28;20465;-82
2023/06/11 09:29:23;;;;;;;4.73;2.80;;;;;;;;;;5026572;28;20455;-82
2023/06/11 09:32:02;;;;;;;8.93;3.30;;;;;;;;;;5026151;28;20522;-83
2023/06/11 09:34:30;;;;;;;6.07;3.00;;;;;;;;;;5025396;28;20546;-81
2023/06/11 09:36:57;;;;;;;3.83;2.80;;;;;;;;;;5025882;28;20558;-82
2023/06/11 09:39:25;;;;;;;4.00;2.80;;;;;;;;;;5024742;28;20475;-83
2023/06/11 09:41:53;;;;;;;9.47;2.63;;;;;;;;;;5025947;28;20710;-80
2023/06/11 09:44:20;;;;;;;10.37;2.60;;;;;;;;;;5021811;28;20452;-83
2023/06/11 09:46:48;;;;;;;7.40;2.70;;;;;;;;;;5025573;28;20470;-82
2023/06/11 09:49:17;;;;;;;5.40;2.53;;;;;;;;;;5026438;28;20452;-82
2023/06/11 09:51:45;;;;;;;6.60;3.00;;;;;;;;;;5027101;28;20498;-78
2023/06/11 09:54:13;;;;;;;5.60;2.70;;;;;;;;;;5026840;28;20689;-80
2023/06/11 09:56:42;;;;;;;5.63;2.90;;;;;;;;;;5027321;28;20471;-82
2023/06/11 09:59:15;;;;;;;12.20;2.70;;;;;;;;;;5024769;28;20464;-82
2023/06/11 10:01:43;;;;;;;5.03;2.63;;;;;;;;;;5024636;28;20511;-82
2023/06/11 10:04:11;;;;;;;3.40;2.30;;;;;;;;;;5012703;28;20469;-81
2023/06/11 10:06:43;;;;;;;5.13;2.13;;;;;;;;;;5028728;28;20498;-79
2023/06/11 10:09:13;;;;;;;4.60;2.47;;;;;;;;;;5027250;28;20478;-81
2023/06/11 10:11:41;;;;;;;4.33;2.40;;;;;;;;;;5022036;28;20471;-79
2023/06/11 10:14:14;;;;;;;4.30;2.40;;;;;;;;;;5029919;28;20738;-80
2023/06/11 10:16:41;;;;;;;5.90;2.50;;;;;;;;;;5032602;28;20494;-81
2023/06/11 10:19:15;;;;;;;4.90;3.30;;;;;;;;;;5027061;28;20554;-80
2023/06/11 10:21:51;;;;;;;3.73;2.10;;;;;;;;;;5017965;28;20798;-82
2023/06/11 10:24:25;;;;;;;6.20;2.50;;;;;;;;;;5010349;28;20459;-81
2023/06/11 10:27:05;;;;;;;7.20;2.87;;;;;;;;;;5006284;28;20452;-80
2023/06/11 10:29:38;;;;;;;6.63;2.97;;;;;;;;;;5008264;28;20480;-77
2023/06/11 10:32:15;;;;;;;4.10;2.43;;;;;;;;;;5007208;28;20531;-80
2023/06/11 10:34:45;;;;;;;3.60;2.23;;;;;;;;;;5009346;28;20452;-81
2023/06/11 10:37:15;;;;;;;3.60;2.37;;;;;;;;;;5009140;28;20500;-82
2023/06/11 10:39:54;;;;;;;6.33;2.93;;;;;;;;;;5007422;28;20457;-80
2023/06/11 10:42:25;;;;;;;4.07;2.13;;;;;;;;;;5012221;28;20453;-81
2023/06/11 10:44:53;;;;;;;5.33;2.17;;;;;;;;;;5010137;28;20453;-81
2023/06/11 10:47:20;;;;;;;3.80;2.50;;;;;;;;;;5011609;28;20475;-81
2023/06/11 10:49:49;;;;;;;4.10;2.70;;;;;;;;;;5008393;28;20467;-82
2023/06/11 10:52:19;;;;;;;4.77;2.60;;;;;;;;;;5007774;28;20492;-82
2023/06/11 10:54:51;;;;;;;6.60;2.70;;;;;;;;;;5010932;28;20453;-79
2023/06/11 10:57:18;;;;;;;5.67;2.67;;;;;;;;;;5013755;28;20471;-82
2023/06/11 10:59:46;;;;;;;5.00;3.53;;;;;;;;;;5009148;28;20441;-80
2023/06/11 11:02:15;;;;;;;5.53;2.97;;;;;;;;;;5018569;28;20451;-81
2023/06/11 11:04:55;;;;;;;4.83;2.77;;;;;;;;;;5010733;28;20439;-83
2023/06/11 11:07:34;;;;;;;4.80;3.70;;;;;;;;;;5008722;28;20527;-77
2023/06/11 11:10:01;;;;;;;6.83;2.50;;;;;;;;;;5007238;28;20485;-79
2023/06/11 11:12:36;;;;;;;5.23;2.80;;;;;;;;;;5005737;28;20499;-81
2023/06/11 11:15:05;;;;;;;6.63;2.30;;;;;;;;;;5007570;28;20458;-79
2023/06/11 11:17:32;;;;;;;5.10;2.60;;;;;;;;;;5005083;28;20870;-78
2023/06/11 11:20:00;;;;;;;6.00;2.33;;;;;;;;;;5007780;28;20500;-81
2023/06/11 11:22:29;;;;;;;5.27;2.37;;;;;;;;;;5006921;28;20703;-78
2023/06/11 11:25:01;;;;;;;6.37;2.63;;;;;;;;;;5011261;28;20448;-80
2023/06/11 11:27:29;;;;;;;3.93;2.63;;;;;;;;;;5008660;28;20443;-81
2023/06/11 11:29:57;;;;;;;5.13;2.43;;;;;;;;;;5007568;28;20453;-80
2023/06/11 11:32:26;;;;;;;4.60;2.37;;;;;;;;;;5006069;28;20495;-81
2023/06/11 11:34:53;;;;;;;4.17;2.40;;;;;;;;;;5004774;28;20527;-83
2023/06/11 11:37:21;;;;;;;4.13;1.80;;;;;;;;;;5005210;28;20474;-81
2023/06/11 11:39:54;;;;;;;5.60;2.90;;;;;;;;;;5006147;28;20455;-79
2023/06/11 11:42:21;;;;;;;4.60;2.90;;;;;;;;;;5001988;28;20453;-82
2023/06/11 11:44:52;;;;;;;5.50;2.30;;;;;;;;;;5000557;28;20473;-80
2023/06/11 11:47:20;;;;;;;4.80;3.47;;;;;;;;;;5001591;28;20463;-81
2023/06/11 11:49:53;;;;;;;5.40;3.00;;;;;;;;;;5000474;28;20461;-81
2023/06/11 11:52:22;;;;;;;3.50;2.33;;;;;;;;;;5002937;28;20553;-81
2023/06/11 11:54:49;;;;;;;4.27;2.60;;;;;;;;;;5000635;28;20472;-80
2023/06/11 11:57:22;;;;;;;4.53;2.70;;;;;;;;;;5002215;28;20464;-79
2023/06/11 11:59:53;;;;;;;4.47;2.43;;;;;;;;;;5005568;28;20452;-80
2023/06/11 12:02:26;;;;;;;3.70;2.47;;;;;;;;;;5005557;28;20449;-78
2023/06/11 12:04:57;;;;;;;6.50;2.63;;;;;;;;;;5002092;28;20447;-79
2023/06/11 12:07:25;;;;;;;4.80;2.67;;;;;;;;;;5022698;28;20506;-81
2023/06/11 12:09:59;;;;;;;3.20;2.30;;;;;;;;;;5025065;28;20448;-79
2023/06/11 12:12:28;;;;;;;5.00;2.57;;;;;;;;;;5021026;28;21109;-80
2023/06/11 12:14:55;;;;;;;10.93;2.47;;;;;;;;;;5023191;28;20448;-82
2023/06/11 12:17:23;;;;;;;4.50;2.07;;;;;;;;;;5019778;28;21059;-82
2023/06/11 12:19:51;;;;;;;5.53;2.60;;;;;;;;;;5018072;28;20462;-79
2023/06/11 12:22:19;;;;;;;4.40;2.63;;;;;;;;;;5019785;28;20447;-80
2023/06/11 12:24:47;;;;;;;7.10;2.50;;;;;;;;;;5019634;28;20455;-79
2023/06/11 12:27:16;;;;;;;4.80;2.60;;;;;;;;;;5024140;28;20726;-80
2023/06/11 12:29:50;;;;;;;7.03;2.77;;;;;;;;;;5019998;28;20452;-82
2023/06/11 12:32:20;;;;;;;4.23;2.53;;;;;;;;;;5020626;28;20483;-80
2023/06/11 12:34:50;;;;;;;6.83;3.23;;;;;;;;;;5020065;28;20479;-80
2023/06/11 12:37:18;;;;;;;5.80;2.40;;;;;;;;;;5020296;28;20455;-79
2023/06/11 12:39:46;;;;;;;5.33;2.60;;;;;;;;;;5020204;28;20546;-80
2023/06/11 12:42:14;;;;;;;6.30;2.97;;;;;;;;;;5017917;28;20749;-81
2023/06/11 12:44:43;;;;;;;5.27;2.17;;;;;;;;;;5018670;28;20479;-80
2023/06/11 12:47:12;;;;;;;3.77;2.30;;;;;;;;;;5020143;28;20452;-80
2023/06/11 12:49:42;;;;;;;4.23;2.20;;;;;;;;;;5019658;28;20460;-83
2023/06/11 12:52:11;;;;;;;4.03;2.73;;;;;;;;;;5020492;28;20483;-83
2023/06/11 12:54:38;;;;;;;5.30;3.30;;;;;;;;;;5018907;28;20447;-81
2023/06/11 12:57:06;;;;;;;4.10;2.30;;;;;;;;;;5022129;28;20448;-80
2023/06/11 12:59:34;;;;;;;7.00;2.37;;;;;;;;;;5019814;28;20846;-79
2023/06/11 13:02:02;;;;;;;4.57;2.30;;;;;;;;;;5025295;28;20497;-80
2023/06/11 13:04:31;;;;;;;5.50;2.10;;;;;;;;;;5039486;28;20461;-79
2023/06/11 13:06:59;;;;;;;9.87;2.57;;;;;;;;;;5036490;28;20490;-83
2023/06/11 13:09:27;;;;;;;5.33;2.27;;;;;;;;;;5038281;28;20464;-83
2023/06/11 13:11:55;;;;;;;14.37;12.60;;;;;;;;;;5033368;28;20904;-81
2023/06/11 13:14:22;;;;;;;9.80;3.13;;;;;;;;;;5033848;28;20461;-81
2023/06/11 13:16:51;;;;;;;5.23;2.40;;;;;;;;;;5042867;28;20466;-81
2023/06/11 13:19:21;;;;;;;5.30;2.80;;;;;;;;;;5028760;28;20904;-83
2023/06/11 13:21:50;;;;;;;14.60;3.67;;;;;;;;;;5013901;28;20502;-81
2023/06/11 13:24:17;;;;;;;4.37;2.47;;;;;;;;;;5015828;28;20451;-78
2023/06/11 13:26:45;;;;;;;5.10;2.17;;;;;;;;;;5016521;28;20463;-78
2023/06/11 13:29:13;;;;;;;6.30;2.60;;;;;;;;;;5018509;28;20485;-79
2023/06/11 13:31:40;;;;;;;5.70;2.33;;;;;;;;;;5017117;28;20460;-81
2023/06/11 13:34:08;;;;;;;5.30;2.17;;;;;;;;;;5015540;28;20483;-81
2023/06/11 13:36:36;;;;;;;5.10;2.53;;;;;;;;;;5019940;28;20510;-82
2023/06/11 13:39:06;;;;;;;4.50;2.20;;;;;;;;;;5018729;28;20462;-82
2023/06/11 13:41:34;;;;;;;4.57;2.30;;;;;;;;;;5018455;28;20459;-83
2023/06/11 13:44:01;;;;;;;7.33;2.00;;;;;;;;;;5016417;28;20455;-81
2023/06/11 13:46:29;;;;;;;4.77;2.90;;;;;;;;;;5019913;28;20463;-80
2023/06/11 13:48:56;;;;;;;5.37;2.20;;;;;;;;;;5019982;28;20458;-77
2023/06/11 13:51:27;;;;;;;5.57;2.53;;;;;;;;;;5020952;28;20452;-79
2023/06/11 13:53:55;;;;;;;5.07;2.30;;;;;;;;;;5020650;28;20491;-80
2023/06/11 13:56:31;;;;;;;4.50;2.30;;;;;;;;;;5015150;28;20993;-79
2023/06/11 13:58:59;;;;;;;4.27;2.57;;;;;;;;;;5000739;28;20452;-78
2023/06/11 14:01:27;;;;;;;4.90;2.07;;;;;;;;;;5005237;28;20468;-81
2023/06/11 14:03:54;;;;;;;5.80;2.57;;;;;;;;;;5020938;28;20713;-82
2023/06/11 14:06:22;;;;;;;6.23;2.83;;;;;;;;;;5023794;28;20491;-77
2023/06/11 14:08:49;;;;;;;4.00;2.07;;;;;;;;;;5019124;28;20479;-80
2023/06/11 14:11:17;;;;;;;4.60;2.50;;;;;;;;;;5022273;28;20452;-81
2023/06/11 14:13:46;;;;;;;3.90;2.10;;;;;;;;;;5018917;28;20514;-77
2023/06/11 14:16:13;;;;;;;4.60;2.30;;;;;;;;;;5023972;28;20458;-81
2023/06/11 14:18:45;;;;;;;5.83;2.70;;;;;;;;;;5024267;28;20471;-81
2023/06/11 14:21:13;;;;;;;6.70;2.40;;;;;;;;;;5025929;28;20471;-80
2023/06/11 14:23:40;;;;;;;6.83;2.13;;;;;;;;;;5025181;28;20474;-80
2023/06/11 14:26:09;;;;;;;8.13;2.40;;;;;;;;;;5025501;28;20520;-82
2023/06/11 14:28:37;;;;;;;4.60;2.07;;;;;;;;;;5024001;28;20455;-82
2023/06/11 14:31:08;;;;;;;5.50;2.20;;;;;;;;;;5025205;28;20460;-81
2023/06/11 14:33:35;;;;;;;5.10;2.47;;;;;;;;;;5025430;28;20579;-78
2023/06/11 14:36:04;;;;;;;5.90;2.27;;;;;;;;;;5023161;28;20456;-80
2023/06/11 14:38:32;;;;;;;5.20;2.23;;;;;;;;;;5012469;28;20468;-81
2023/06/11 14:40:59;;;;;;;4.20;2.30;;;;;;;;;;5013625;28;20817;-84
2023/06/11 14:43:27;;;;;;;3.80;2.17;;;;;;;;;;5023346;28;20495;-81
2023/06/11 14:45:54;;;;;;;4.80;1.90;;;;;;;;;;5021278;28;20455;-81
2023/06/11 14:48:23;;;;;;;4.20;2.37;;;;;;;;;;5022014;28;20714;-80
2023/06/11 14:50:50;;;;;;;5.20;2.70;;;;;;;;;;5027858;28;20683;-82
2023/06/11 14:53:18;;;;;;;9.50;2.30;;;;;;;;;;5021900;28;20515;-82